createdAt,value
2019-01-23T00:01:27.659Z,50.00
2019-01-23T00:03:56.320Z,44.97
2019-01-23T00:06:24.973Z,54.83
2019-01-23T00:08:53.629Z,57.37
2019-01-23T00:11:22.307Z,58.87
2019-01-23T00:13:50.987Z,55.13
2019-01-23T00:16:19.687Z,46.30
2019-01-23T00:18:48.342Z,32.83
2019-01-23T00:21:17.387Z,38.93
2019-01-23T00:23:46.057Z,47.20
2019-01-23T00:26:15.090Z,45.67
2019-01-23T00:28:44.161Z,62.70
2019-01-23T00:31:12.879Z,39.23
2019-01-23T00:33:41.602Z,34.73
2019-01-23T00:36:10.233Z,41.73
2019-01-23T00:38:38.865Z,42.30
2019-01-23T00:41:07.531Z,39.63
2019-01-23T00:43:36.487Z,42.73
2019-01-23T00:46:05.135Z,50.50
2019-01-23T00:48:34.148Z,59.43
2019-01-23T00:51:03.172Z,41.70
2019-01-23T00:53:31.824Z,46.30
2019-01-23T00:56:00.520Z,46.60
2019-01-23T00:58:29.459Z,42.23
2019-01-23T01:00:58.192Z,41.17
2019-01-23T01:03:27.018Z,48.37
2019-01-23T01:05:55.714Z,52.27
2019-01-23T01:08:24.706Z,30.87
2019-01-23T01:10:53.344Z,36.80
2019-01-23T01:13:22.475Z,45.33
2019-01-23T01:15:51.189Z,44.80
2019-01-23T01:18:19.884Z,53.23
2019-01-23T01:20:48.771Z,40.63
2019-01-23T01:23:17.691Z,51.93
2019-01-23T01:25:46.325Z,48.47
2019-01-23T01:28:14.982Z,45.93
2019-01-23T01:30:43.699Z,46.87
2019-01-23T01:33:12.667Z,50.43
2019-01-23T01:35:41.315Z,26.20
2019-01-23T01:38:09.970Z,31.83
2019-01-23T01:40:39.462Z,28.13
2019-01-23T01:43:08.211Z,41.23
2019-01-23T01:45:36.864Z,47.47
2019-01-23T01:48:05.918Z,49.17
2019-01-23T01:50:34.915Z,39.97
2019-01-23T01:53:03.985Z,42.00
2019-01-23T01:55:32.906Z,39.90
2019-01-23T01:58:02.676Z,52.20
2019-01-23T02:00:31.455Z,50.37
2019-01-23T02:03:00.180Z,46.90
2019-01-23T02:05:28.939Z,37.03
2019-01-23T02:07:57.558Z,34.07
2019-01-23T02:10:26.218Z,45.33
2019-01-23T02:12:54.960Z,42.30
2019-01-23T02:15:23.691Z,45.77
2019-01-23T02:17:52.723Z,62.63
2019-01-23T02:20:26.359Z,59.53
2019-01-23T02:22:55.087Z,55.43
2019-01-23T02:25:23.852Z,51.70
2019-01-23T02:27:52.987Z,51.33
2019-01-23T02:30:23.589Z,57.20
2019-01-23T02:32:52.615Z,51.57
2019-01-23T02:35:21.654Z,48.03
2019-01-23T02:37:50.377Z,35.50
2019-01-23T02:40:21.237Z,69.30
2019-01-23T02:42:50.346Z,37.67
2019-01-23T02:45:19.683Z,43.50
2019-01-23T02:47:48.457Z,65.00
2019-01-23T02:50:17.239Z,66.07
2019-01-23T02:52:46.132Z,46.67
2019-01-23T02:55:14.882Z,23.17
2019-01-23T02:57:43.962Z,52.37
2019-01-23T03:00:17.160Z,41.63
2019-01-23T03:02:46.600Z,35.30
2019-01-23T03:05:17.561Z,53.87
2019-01-23T03:07:46.275Z,50.10
2019-01-23T03:10:17.188Z,66.90
2019-01-23T03:12:45.968Z,41.43
2019-01-23T03:15:15.495Z,64.13
2019-01-23T03:17:45.798Z,43.80
2019-01-23T03:20:16.279Z,59.57
2019-01-23T03:22:45.040Z,62.80
2019-01-23T03:25:14.156Z,56.50
2019-01-23T03:27:42.864Z,67.27
2019-01-23T03:30:15.212Z,31.60
2019-01-23T03:32:44.367Z,37.17
2019-01-23T03:35:13.424Z,63.07
2019-01-23T03:37:42.063Z,34.63
2019-01-23T03:40:13.572Z,50.37
2019-01-23T03:42:42.600Z,32.40
2019-01-23T03:45:12.599Z,44.83
2019-01-23T03:47:41.402Z,39.13
2019-01-23T03:50:13.327Z,34.33
2019-01-23T03:52:42.328Z,41.17
2019-01-23T03:55:11.383Z,22.73
2019-01-23T03:57:40.184Z,46.30
2019-01-23T04:00:11.977Z,36.30
2019-01-23T04:02:40.849Z,45.77
2019-01-23T04:05:10.249Z,32.97
2019-01-23T04:07:38.964Z,29.30
2019-01-23T04:10:09.960Z,46.87
2019-01-23T04:12:38.585Z,41.70
2019-01-23T04:15:08.763Z,39.40
2019-01-23T04:17:37.543Z,38.37
2019-01-23T04:20:10.159Z,62.63
2019-01-23T04:22:39.375Z,45.83
2019-01-23T04:25:08.368Z,72.60
2019-01-23T04:27:37.349Z,54.47
2019-01-23T04:30:08.213Z,45.57
2019-01-23T04:32:36.886Z,43.60
2019-01-23T04:35:06.156Z,50.13
2019-01-23T04:37:35.114Z,50.07
2019-01-23T04:40:04.562Z,63.83
2019-01-23T04:42:33.531Z,51.20
2019-01-23T04:45:02.327Z,47.67
2019-01-23T04:47:31.198Z,61.77
2019-01-23T04:49:59.891Z,61.17
2019-01-23T04:52:46.411Z,51.17
2019-01-23T04:55:15.067Z,45.13
2019-01-23T04:57:44.029Z,69.97
2019-01-23T05:00:14.513Z,43.70
2019-01-23T05:02:43.278Z,52.20
2019-01-23T05:05:12.542Z,55.57
2019-01-23T05:07:41.194Z,61.70
2019-01-23T05:10:09.980Z,48.37
2019-01-23T05:12:38.624Z,30.37
2019-01-23T05:15:07.443Z,46.33
2019-01-23T05:17:36.071Z,35.30
2019-01-23T05:20:05.665Z,58.90
2019-01-23T05:22:34.301Z,45.63
2019-01-23T05:25:03.015Z,49.27
2019-01-23T05:27:32.732Z,55.93
2019-01-23T05:30:01.375Z,58.30
2019-01-23T05:32:30.028Z,47.30
2019-01-23T05:34:59.191Z,55.03
2019-01-23T05:37:27.829Z,66.93
2019-01-23T05:39:56.493Z,40.03
2019-01-23T05:42:25.140Z,58.07
2019-01-23T05:44:53.853Z,34.57
2019-01-23T05:47:22.581Z,53.87
2019-01-23T05:49:51.256Z,46.27
2019-01-23T05:52:19.963Z,54.63
2019-01-23T05:54:48.634Z,64.17
2019-01-23T05:57:17.332Z,44.20
2019-01-23T05:59:46.012Z,50.17
2019-01-23T06:02:14.690Z,43.23
2019-01-23T06:04:43.675Z,77.43
2019-01-23T06:07:12.325Z,57.03
2019-01-23T06:09:40.965Z,56.40
2019-01-23T06:12:09.607Z,44.87
2019-01-23T06:14:38.254Z,58.50
2019-01-23T06:17:06.974Z,80.10
2019-01-23T06:19:35.614Z,50.17
2019-01-23T06:22:04.258Z,43.60
2019-01-23T06:24:33.231Z,78.77
2019-01-23T06:27:01.903Z,38.30
2019-01-23T06:29:30.530Z,68.90
2019-01-23T06:31:59.249Z,51.83
2019-01-23T06:34:27.898Z,67.70
2019-01-23T06:36:56.639Z,59.57
2019-01-23T06:39:25.626Z,75.80
2019-01-23T06:41:54.288Z,52.13
2019-01-23T06:44:23.203Z,52.97
2019-01-23T06:46:51.855Z,62.77
2019-01-23T06:49:20.563Z,39.53
2019-01-23T06:51:49.211Z,81.63
2019-01-23T06:54:18.218Z,81.27
2019-01-23T06:56:47.233Z,68.73
2019-01-23T06:59:15.872Z,81.33
2019-01-23T07:01:44.839Z,73.37
2019-01-23T07:04:13.714Z,88.83
2019-01-23T07:06:46.974Z,76.10
2019-01-23T07:09:15.851Z,60.00
2019-01-23T07:11:46.834Z,84.77
2019-01-23T07:14:14.971Z,79.37
2019-01-23T07:16:43.996Z,92.37
2019-01-23T07:19:12.651Z,85.80
2019-01-23T07:21:41.810Z,82.37
2019-01-23T07:24:10.708Z,88.70
2019-01-23T07:26:39.423Z,53.80
2019-01-23T07:29:08.470Z,66.60
2019-01-23T07:31:37.128Z,69.87
2019-01-23T07:34:05.770Z,49.57
2019-01-23T07:36:34.469Z,93.80
2019-01-23T07:39:05.103Z,77.57
2019-01-23T07:41:33.778Z,86.40
2019-01-23T07:44:02.830Z,112.90
2019-01-23T07:46:31.485Z,99.97
2019-01-23T07:49:00.441Z,96.10
2019-01-23T07:51:29.647Z,100.07
2019-01-23T07:53:58.370Z,110.60
2019-01-23T07:56:27.047Z,92.20
2019-01-23T07:58:55.829Z,102.53
2019-01-23T08:01:27.029Z,67.83
2019-01-23T08:03:55.635Z,113.47
2019-01-23T08:06:24.591Z,110.30
2019-01-23T08:08:53.354Z,100.20
2019-01-23T08:11:22.419Z,80.50
2019-01-23T08:13:51.136Z,100.80
2019-01-23T08:16:20.270Z,80.67
2019-01-23T08:18:48.955Z,79.17
2019-01-23T08:21:17.658Z,87.93
2019-01-23T08:23:46.300Z,88.53
2019-01-23T08:26:14.982Z,98.13
2019-01-23T08:28:43.623Z,95.50
2019-01-23T08:31:12.270Z,113.37
2019-01-23T08:33:40.936Z,124.10
2019-01-23T08:36:09.873Z,119.47
2019-01-23T08:38:38.510Z,99.33
2019-01-23T08:41:07.534Z,103.43
2019-01-23T08:43:36.179Z,119.37
2019-01-23T08:46:05.631Z,102.80
2019-01-23T08:48:34.287Z,133.63
2019-01-23T08:51:03.027Z,113.43
2019-01-23T08:53:31.664Z,110.47
2019-01-23T08:56:00.578Z,137.23
2019-01-23T08:58:29.472Z,132.30
2019-01-23T09:00:58.483Z,142.97
2019-01-23T09:03:27.410Z,133.17
2019-01-23T09:05:56.086Z,119.90
2019-01-23T09:08:24.747Z,144.23
2019-01-23T09:10:53.395Z,132.87
2019-01-23T09:13:22.566Z,134.73
2019-01-23T09:15:51.260Z,133.30
2019-01-23T09:18:19.913Z,138.57
2019-01-23T09:20:48.577Z,126.50
2019-01-23T09:23:17.237Z,97.27
2019-01-23T09:25:50.171Z,105.17
2019-01-23T09:28:16.398Z,126.53
2019-01-23T09:30:53.008Z,121.93
2019-01-23T09:33:58.694Z,83.40
2019-01-23T09:37:02.297Z,98.53
2019-01-23T09:40:11.514Z,79.13
2019-01-23T09:43:21.767Z,125.73
2019-01-23T09:46:04.181Z,127.50
2019-01-23T09:49:13.592Z,101.43
2019-01-23T09:52:06.587Z,130.37
2019-01-23T09:54:35.474Z,129.73
2019-01-23T09:57:04.253Z,135.80
2019-01-23T09:59:33.585Z,109.57
2019-01-23T10:02:02.282Z,100.50
2019-01-23T10:04:31.197Z,138.40
2019-01-23T10:07:00.191Z,83.77
2019-01-23T10:09:29.159Z,133.13
2019-01-23T10:11:58.145Z,116.03
2019-01-23T10:14:27.149Z,103.50
2019-01-23T10:16:55.815Z,103.20
2019-01-23T10:19:24.500Z,78.30
2019-01-23T10:21:53.404Z,124.57
2019-01-23T10:24:22.104Z,118.97
2019-01-23T10:26:50.738Z,112.30
2019-01-23T10:29:19.489Z,117.43
2019-01-23T10:31:48.214Z,115.13
2019-01-23T10:34:16.871Z,81.47
2019-01-23T10:36:45.830Z,96.53
2019-01-23T10:39:14.495Z,86.77
2019-01-23T10:41:43.397Z,96.60
2019-01-23T10:44:12.907Z,96.77
2019-01-23T10:46:42.009Z,72.60
2019-01-23T10:49:10.661Z,85.73
2019-01-23T10:51:39.313Z,118.87
2019-01-23T10:54:09.886Z,68.37
2019-01-23T10:56:38.777Z,91.30
2019-01-23T10:59:07.426Z,133.70
2019-01-23T11:01:36.299Z,101.97
2019-01-23T11:04:06.393Z,131.40
2019-01-23T11:06:35.593Z,112.10
2019-01-23T11:09:07.413Z,72.57
2019-01-23T11:11:36.481Z,105.90
2019-01-23T11:14:05.746Z,129.90
2019-01-23T11:16:34.612Z,116.27
2019-01-23T11:19:03.267Z,108.80
2019-01-23T11:21:32.228Z,117.30
2019-01-23T11:24:00.999Z,111.27
2019-01-23T11:26:30.112Z,103.63
2019-01-23T11:28:58.875Z,82.73
2019-01-23T11:31:27.579Z,70.67
2019-01-23T11:33:56.241Z,94.80
2019-01-23T11:36:25.267Z,87.20
2019-01-23T11:38:53.922Z,91.90
2019-01-23T11:41:22.659Z,110.43
2019-01-23T11:43:51.331Z,86.40
2019-01-23T11:46:20.041Z,91.93
2019-01-23T11:48:48.691Z,125.97
2019-01-23T11:51:17.620Z,89.40
2019-01-23T11:53:46.291Z,110.97
2019-01-23T11:56:15.013Z,99.23
2019-01-23T11:58:43.874Z,82.07
2019-01-23T12:01:13.440Z,81.87
2019-01-23T12:03:42.166Z,137.07
2019-01-23T12:06:11.142Z,90.27
2019-01-23T12:08:39.771Z,98.40
2019-01-23T12:11:08.438Z,97.73
2019-01-23T12:13:37.170Z,97.07
2019-01-23T12:16:07.324Z,95.77
2019-01-23T12:18:36.319Z,85.37
2019-01-23T12:21:05.192Z,103.57
2019-01-23T12:23:33.880Z,78.10
2019-01-23T12:26:02.578Z,75.93
2019-01-23T12:28:31.250Z,80.07
2019-01-23T12:31:00.220Z,106.63
2019-01-23T12:33:29.360Z,79.63
2019-01-23T12:35:58.087Z,104.43
2019-01-23T12:38:27.134Z,127.83
2019-01-23T12:40:55.808Z,106.43
2019-01-23T12:43:24.804Z,79.13
2019-01-23T12:45:53.467Z,56.23
2019-01-23T12:48:22.127Z,84.63
2019-01-23T12:50:51.000Z,119.37
2019-01-23T12:53:19.815Z,92.57
2019-01-23T12:55:48.485Z,97.60
2019-01-23T12:58:17.143Z,109.10
2019-01-23T13:00:46.203Z,75.53
2019-01-23T13:03:15.133Z,70.03
2019-01-23T13:05:43.879Z,71.07
2019-01-23T13:08:12.675Z,80.93
2019-01-23T13:10:41.424Z,67.97
2019-01-23T13:13:10.487Z,68.60
2019-01-23T13:15:39.164Z,61.07
2019-01-23T13:18:07.859Z,76.07
2019-01-23T13:20:36.860Z,60.47
2019-01-23T13:23:05.528Z,58.97
2019-01-23T13:25:34.292Z,57.30
2019-01-23T13:28:03.356Z,77.43
2019-01-23T13:30:32.104Z,50.07
2019-01-23T13:33:00.853Z,74.63
2019-01-23T13:35:32.553Z,60.33
2019-01-23T13:38:01.833Z,72.67
2019-01-23T13:40:33.150Z,57.00
2019-01-23T13:43:01.950Z,61.97
2019-01-23T13:45:30.628Z,57.37
2019-01-23T13:47:59.407Z,66.57
2019-01-23T13:50:28.058Z,63.87
2019-01-23T13:52:56.764Z,70.90
2019-01-23T13:55:25.514Z,58.30
2019-01-23T13:57:54.671Z,76.97
2019-01-23T14:00:35.679Z,70.60
2019-01-23T14:03:04.891Z,43.23
2019-01-23T14:05:33.935Z,59.07
2019-01-23T14:08:03.008Z,68.63
2019-01-23T14:10:32.210Z,56.83
2019-01-23T14:13:00.910Z,44.33
2019-01-23T14:15:32.031Z,44.23
2019-01-23T14:18:00.784Z,42.70
2019-01-23T14:20:29.480Z,57.90
2019-01-23T14:22:58.133Z,54.47
2019-01-23T14:25:26.987Z,60.10
2019-01-23T14:27:55.802Z,41.27
2019-01-23T14:30:42.076Z,40.63
2019-01-23T14:33:11.087Z,30.07
2019-01-23T14:35:42.540Z,39.87
2019-01-23T14:38:11.232Z,46.03
2019-01-23T14:40:42.427Z,41.87
2019-01-23T14:43:11.453Z,27.87
2019-01-23T14:45:40.254Z,36.90
2019-01-23T14:48:09.480Z,38.73
2019-01-23T14:50:38.456Z,40.23
2019-01-23T14:53:07.190Z,39.17
2019-01-23T14:55:36.538Z,32.43
2019-01-23T14:58:05.620Z,40.30
2019-01-23T15:00:34.383Z,49.40
2019-01-23T15:03:03.132Z,35.23
2019-01-23T15:05:31.951Z,28.23
2019-01-23T15:08:00.920Z,30.43
2019-01-23T15:10:30.658Z,27.00
2019-01-23T15:12:59.839Z,36.90
2019-01-23T15:15:28.655Z,31.27
2019-01-23T15:17:57.374Z,32.20
2019-01-23T15:20:37.679Z,21.47
2019-01-23T15:23:06.933Z,18.13
2019-01-23T15:25:35.680Z,35.63
2019-01-23T15:28:04.998Z,29.73
2019-01-23T15:30:33.751Z,19.83
2019-01-23T15:33:03.054Z,32.47
2019-01-23T15:35:31.747Z,25.27
2019-01-23T15:38:00.991Z,30.87
2019-01-23T15:40:32.183Z,26.03
2019-01-23T15:43:00.865Z,30.27
2019-01-23T15:45:29.668Z,21.20
2019-01-23T15:47:58.362Z,40.77
2019-01-23T15:50:27.542Z,24.40
2019-01-23T15:52:56.693Z,27.60
2019-01-23T15:55:26.035Z,25.03
2019-01-23T15:57:54.950Z,29.53
2019-01-23T16:00:26.000Z,17.87
2019-01-23T16:02:55.269Z,17.97
2019-01-23T16:05:23.952Z,24.33
2019-01-23T16:07:52.721Z,24.53
2019-01-23T16:10:23.131Z,34.33
2019-01-23T16:12:51.860Z,27.13
2019-01-23T16:15:21.905Z,22.77
2019-01-23T16:17:50.592Z,28.27
2019-01-23T16:20:19.344Z,23.83
2019-01-23T16:22:48.259Z,20.43
2019-01-23T16:25:17.057Z,31.67
2019-01-23T16:27:46.091Z,24.23
2019-01-23T16:30:25.084Z,34.00
2019-01-23T16:32:54.013Z,26.73
2019-01-23T16:35:22.753Z,34.20
2019-01-23T16:37:51.833Z,38.47
2019-01-23T16:40:20.511Z,18.43
2019-01-23T16:42:49.615Z,26.67
2019-01-23T16:45:19.298Z,19.00
2019-01-23T16:47:48.470Z,29.30
2019-01-23T16:50:19.417Z,17.90
2019-01-23T16:52:48.196Z,24.27
2019-01-23T16:55:17.025Z,20.37
2019-01-23T16:57:45.936Z,20.17
2019-01-23T17:00:17.266Z,17.90
2019-01-23T17:02:47.887Z,22.67
2019-01-23T17:05:20.802Z,14.63
2019-01-23T17:07:49.512Z,23.80
2019-01-23T17:10:20.248Z,17.70
2019-01-23T17:12:49.264Z,24.10
2019-01-23T17:15:18.150Z,23.80
2019-01-23T17:17:46.880Z,23.70
2019-01-23T17:20:19.663Z,26.43
2019-01-23T17:22:48.392Z,33.67
2019-01-23T17:25:17.706Z,27.67
2019-01-23T17:27:46.408Z,33.80
2019-01-23T17:30:16.380Z,24.17
2019-01-23T17:32:45.789Z,26.40
2019-01-23T17:35:15.723Z,24.37
2019-01-23T17:37:44.491Z,25.20
2019-01-23T17:40:15.414Z,30.30
2019-01-23T17:42:44.532Z,21.47
2019-01-23T17:45:17.547Z,25.20
2019-01-23T17:47:46.762Z,24.07
2019-01-23T17:50:17.666Z,29.80
2019-01-23T17:52:46.423Z,29.63
2019-01-23T17:55:24.280Z,22.37
2019-01-23T17:57:53.059Z,29.40
2019-01-23T18:00:25.410Z,22.50
2019-01-23T18:02:54.858Z,26.13
2019-01-23T18:05:23.994Z,27.70
2019-01-23T18:07:52.800Z,17.00
2019-01-23T18:10:21.661Z,25.50
2019-01-23T18:12:50.448Z,25.47
2019-01-23T18:15:21.193Z,23.43
2019-01-23T18:17:50.087Z,16.07
2019-01-23T18:20:21.329Z,29.27
2019-01-23T18:22:50.382Z,29.93
2019-01-23T18:25:19.589Z,25.27
2019-01-23T18:27:48.445Z,22.47
2019-01-23T18:30:29.865Z,26.93
2019-01-23T18:33:00.084Z,22.27
2019-01-23T18:35:48.124Z,31.23
2019-01-23T18:38:32.743Z,25.20
2019-01-23T18:41:40.893Z,23.73
2019-01-23T18:44:59.893Z,24.90
2019-01-23T18:48:07.984Z,28.43
2019-01-23T18:51:11.606Z,16.13
2019-01-23T18:53:41.169Z,26.70
2019-01-23T18:56:09.937Z,23.23
2019-01-23T18:58:38.844Z,29.30
2019-01-23T19:01:07.646Z,17.27
2019-01-23T19:03:36.922Z,22.77
2019-01-23T19:06:05.779Z,16.30
2019-01-23T19:08:35.166Z,15.13
2019-01-23T19:11:04.643Z,17.47
2019-01-23T19:13:33.424Z,23.97
2019-01-23T19:16:02.525Z,29.37
2019-01-23T19:18:31.467Z,29.03
2019-01-23T19:21:00.546Z,33.93
2019-01-23T19:23:29.887Z,27.30
2019-01-23T19:25:59.160Z,24.37
2019-01-23T19:28:28.502Z,25.47
2019-01-23T19:30:57.641Z,18.90
2019-01-23T19:33:26.422Z,18.23
2019-01-23T19:35:55.207Z,23.70
2019-01-23T19:38:23.979Z,21.63
2019-01-23T19:40:53.012Z,28.07
2019-01-23T19:43:21.827Z,34.00
2019-01-23T19:45:50.911Z,42.60
2019-01-23T19:48:19.710Z,32.33
2019-01-23T19:50:48.547Z,26.53
2019-01-23T19:53:17.508Z,20.27
2019-01-23T19:55:46.399Z,28.00
2019-01-23T19:58:16.249Z,32.97
2019-01-23T20:00:45.091Z,34.10
2019-01-23T20:03:20.269Z,24.97
2019-01-23T20:05:45.759Z,23.83
2019-01-23T20:08:14.463Z,28.67
2019-01-23T20:10:43.125Z,35.60
2019-01-23T20:13:11.906Z,25.17
2019-01-23T20:15:40.631Z,33.90
2019-01-23T20:18:10.547Z,30.80
2019-01-23T20:20:39.784Z,34.77
2019-01-23T20:23:08.514Z,27.57
2019-01-23T20:25:37.222Z,33.20
2019-01-23T20:28:09.073Z,54.90
2019-01-23T20:30:40.430Z,14.73
2019-01-23T20:33:09.501Z,36.07
2019-01-23T20:35:38.205Z,31.37
2019-01-23T20:38:07.509Z,23.47
2019-01-23T20:40:36.826Z,33.47
2019-01-23T20:43:06.577Z,31.63
2019-01-23T20:45:35.685Z,29.40
2019-01-23T20:48:06.114Z,33.00
2019-01-23T20:50:34.866Z,31.37
2019-01-23T20:53:03.916Z,29.90
2019-01-23T20:55:32.650Z,24.07
2019-01-23T20:58:01.470Z,26.43
2019-01-23T21:00:31.798Z,20.27
2019-01-23T21:03:00.717Z,30.23
2019-01-23T21:05:29.606Z,36.97
2019-01-23T21:07:58.406Z,34.83
2019-01-23T21:10:27.528Z,39.57
2019-01-23T21:12:57.421Z,27.90
2019-01-23T21:15:30.809Z,25.43
2019-01-23T21:18:00.266Z,33.63
2019-01-23T21:20:31.702Z,31.13
2019-01-23T21:23:01.059Z,27.67
2019-01-23T21:25:29.901Z,29.90
2019-01-23T21:27:58.753Z,31.17
2019-01-23T21:30:27.630Z,42.00
2019-01-23T21:32:56.817Z,25.00
2019-01-23T21:35:25.602Z,29.47
2019-01-23T21:37:54.291Z,26.60
2019-01-23T21:40:25.462Z,27.30
2019-01-23T21:42:54.307Z,30.73
2019-01-23T21:45:23.337Z,29.00
2019-01-23T21:47:52.847Z,34.10
2019-01-23T21:50:22.544Z,24.37
2019-01-23T21:52:51.758Z,34.07
2019-01-23T21:57:14.525Z,25.67
2019-01-23T21:59:43.611Z,22.63
2019-01-23T22:02:12.384Z,32.17
2019-01-23T22:04:41.084Z,36.77
2019-01-23T22:07:09.787Z,23.37
2019-01-23T22:09:38.520Z,30.13
2019-01-23T22:12:07.269Z,25.90
2019-01-23T22:14:36.224Z,24.57
2019-01-23T22:17:05.118Z,26.50
2019-01-23T22:19:33.846Z,20.03
2019-01-23T22:22:02.553Z,33.10
2019-01-23T22:24:31.255Z,26.67
2019-01-23T22:27:00.167Z,34.83
2019-01-23T22:29:28.889Z,33.13
2019-01-23T22:31:57.566Z,30.40
2019-01-23T22:34:26.607Z,33.53
2019-01-23T22:36:57.069Z,25.70
2019-01-23T22:39:26.356Z,29.07
2019-01-23T22:41:55.119Z,25.40
2019-01-23T22:44:24.269Z,17.50
2019-01-23T22:46:52.987Z,32.10
2019-01-23T22:49:21.685Z,24.40
2019-01-23T22:51:50.390Z,30.03
2019-01-23T22:54:19.423Z,30.40
2019-01-23T22:56:48.100Z,39.33
2019-01-23T22:59:17.015Z,33.13
2019-01-23T23:01:45.876Z,35.20
2019-01-23T23:04:14.788Z,33.10
2019-01-23T23:06:43.779Z,35.33
2019-01-23T23:09:12.539Z,31.07
2019-01-23T23:11:41.290Z,35.63
2019-01-23T23:14:10.098Z,30.87
2019-01-23T23:16:38.832Z,21.33
2019-01-23T23:19:07.940Z,27.40
2019-01-23T23:21:36.921Z,25.80
2019-01-23T23:24:05.724Z,28.13
2019-01-23T23:26:34.750Z,32.03
2019-01-23T23:29:03.891Z,22.07
2019-01-23T23:31:32.576Z,35.13
2019-01-23T23:34:02.720Z,30.00
2019-01-23T23:36:31.831Z,31.63
2019-01-23T23:39:00.588Z,30.73
2019-01-23T23:41:29.351Z,28.73
2019-01-23T23:43:59.412Z,30.13
2019-01-23T23:46:28.216Z,30.77
2019-01-23T23:48:57.240Z,37.43
2019-01-23T23:51:26.042Z,37.63
2019-01-23T23:53:54.774Z,24.73
2019-01-23T23:56:23.463Z,31.70
2019-01-23T23:58:52.232Z,30.33
